KTEB/TEB METAR and TAF weather

Enter ICAO airport designator
Station Type Date Time Source
KTEB METAR 2020/10/29 16:51 UTC NOAA

KTEB 291651Z 05007KT 1SM R06/6000VP6000FT RA BR BKN007 BKN023 OVC049 09/08 A2974 RMK AO2 SLP070 P0026 T00940083 $


Station Type Date Time Source
KTEB Decoded METAR 2020/10/29 16:51 UTC NOAA

TETERBORO AIRPORT, NJ, United States (KTEB) 40-52N 74-03W 7M
Oct 29, 2020 - 12:51 PM EDT / 2020.10.29 1651 UTC
Wind: from the NE (050 degrees) at 8 MPH (7 KT):0
Visibility: 1 mile(s):0
Sky conditions: overcast
Weather: rain; mist
Precipitation last hour: 0.26 inches
Temperature: 48.9 F (9.4 C)
Dew Point: 46.9 F (8.3 C)
Relative Humidity: 92%
Pressure (altimeter): 29.74 in. Hg (1007 hPa)
ob: KTEB 291651Z 05007KT 1SM R06/6000VP6000FT RA BR BKN007 BKN023 OVC049 09/08 A2974 RMK AO2 SLP070 P0026 T00940083
cycle: 17

Station Type Date Time Source
KTEB TAF 2020/10/29 18:36 UTC NOAA

TAF KTEB 291733Z 2918/3024 06010G17KT 2SM RA BR BKN007 BKN020 OVC045 WS003/05040KT
FM292300 03015G23KT 3SM RA BR BKN008 OVC012
FM300300 01013G20KT 3SM -RA BR SCT008 OVC012
FM301000 36015G22KT 3SM -RA BR SCT008 OVC012
FM301400 01020G26KT 3SM SHRA BR SCT008 OVC015
FM301800 01015G21KT 6SM BR BKN015
FM302100 36011KT P6SM BKN050

Example: see airport list